HTUV weather

Uvinza Airport
Uvinza, Xigoma Region, Tanzania

Public forecast

Using degrees Celsius for public forecast. Weather courtesy of forecast.io.

METAR (pilot weather report)

Report is more than 2 hours old.

Closest report is Kigoma Airport, 45.7 nm (84.6 km) WNW. Retrieved 2019/05/25 02:00 UTC (3 hours ago):

HTKA 250200Z 00000KT 9999 SCT019 FEW020CB 20/19 Q1018

TAF (pilot weather forecast)

Forecast is more than 12 hours old.

Closest forecast is Kigoma Airport, 45.7 nm (84.6 km) WNW. Retrieved 2019/04/07 12:27 UTC (2 months ago):

TAF HTKA 071120Z 0712/0812 12013KT 9999 FEW026 FEW027CB BECMG 0714/0716 00000KT